sensor_id;sensor_type;location;lat;lon;timestamp;temperature;humidity
45213;DHT22;35816;44.498;0.166;2022-10-16T08:50:24;21.90;99.90
45213;DHT22;35816;44.498;0.166;2022-10-16T08:52:50;22.20;99.90
45213;DHT22;35816;44.498;0.166;2022-10-16T08:57:50;22.80;99.90
45213;DHT22;35816;44.498;0.166;2022-10-16T09:00:16;23.10;99.90
45213;DHT22;35816;44.498;0.166;2022-10-16T09:02:45;23.30;99.90
45213;DHT22;35816;44.498;0.166;2022-10-16T09:12:53;24.50;97.10
45213;DHT22;35816;44.498;0.166;2022-10-16T09:17:56;25.20;94.20
45213;DHT22;35816;44.498;0.166;2022-10-16T09:23:10;25.80;92.60
45213;DHT22;35816;44.498;0.166;2022-10-16T09:25:38;26.10;90.40
45213;DHT22;35816;44.498;0.166;2022-10-16T09:28:04;26.30;87.80
45213;DHT22;35816;44.498;0.166;2022-10-16T09:30:30;26.60;85.50
45213;DHT22;35816;44.498;0.166;2022-10-16T09:32:57;26.70;82.50
45213;DHT22;35816;44.498;0.166;2022-10-16T09:35:27;26.50;78.30
45213;DHT22;35816;44.498;0.166;2022-10-16T09:37:56;26.20;77.00
45213;DHT22;35816;44.498;0.166;2022-10-16T09:40:26;25.90;77.70
45213;DHT22;35816;44.498;0.166;2022-10-16T09:42:54;26.20;78.50
45213;DHT22;35816;44.498;0.166;2022-10-16T09:45:22;26.30;77.80
45213;DHT22;35816;44.498;0.166;2022-10-16T09:47:48;26.20;76.30
45213;DHT22;35816;44.498;0.166;2022-10-16T09:50:22;25.80;75.50
45213;DHT22;35816;44.498;0.166;2022-10-16T09:52:49;25.50;75.30
45213;DHT22;35816;44.498;0.166;2022-10-16T09:55:15;25.30;76.10
45213;DHT22;35816;44.498;0.166;2022-10-16T09:57:53;25.40;77.80
45213;DHT22;35816;44.498;0.166;2022-10-16T10:00:20;26.00;79.10
45213;DHT22;35816;44.498;0.166;2022-10-16T10:02:46;26.50;78.60
45213;DHT22;35816;44.498;0.166;2022-10-16T10:05:19;27.00;77.30
45213;DHT22;35816;44.498;0.166;2022-10-16T10:07:52;27.40;75.20
45213;DHT22;35816;44.498;0.166;2022-10-16T10:10:20;27.70;73.70
45213;DHT22;35816;44.498;0.166;2022-10-16T10:12:46;27.90;71.60
45213;DHT22;35816;44.498;0.166;2022-10-16T10:15:12;28.20;70.90
45213;DHT22;35816;44.498;0.166;2022-10-16T10:17:46;28.60;70.30
45213;DHT22;35816;44.498;0.166;2022-10-16T10:20:22;28.90;69.40
45213;DHT22;35816;44.498;0.166;2022-10-16T10:22:50;29.00;68.00
45213;DHT22;35816;44.498;0.166;2022-10-16T10:35:19;30.20;64.90
45213;DHT22;35816;44.498;0.166;2022-10-16T10:38:00;30.60;62.80
45213;DHT22;35816;44.498;0.166;2022-10-16T10:43:04;31.00;61.80
45213;DHT22;35816;44.498;0.166;2022-10-16T10:48:10;31.90;60.00
45213;DHT22;35816;44.498;0.166;2022-10-16T10:55:57;32.50;57.60
45213;DHT22;35816;44.498;0.166;2022-10-16T10:58:37;32.70;56.70
45213;DHT22;35816;44.498;0.166;2022-10-16T11:01:08;32.70;56.40
45213;DHT22;35816;44.498;0.166;2022-10-16T11:03:42;32.70;55.70
45213;DHT22;35816;44.498;0.166;2022-10-16T11:06:20;32.90;55.30
45213;DHT22;35816;44.498;0.166;2022-10-16T11:08:50;32.80;54.20
45213;DHT22;35816;44.498;0.166;2022-10-16T11:11:23;32.60;54.20
45213;DHT22;35816;44.498;0.166;2022-10-16T11:16:22;33.20;54.40
45213;DHT22;35816;44.498;0.166;2022-10-16T11:21:47;33.90;54.20
45213;DHT22;35816;44.498;0.166;2022-10-16T11:24:20;34.10;53.20
45213;DHT22;35816;44.498;0.166;2022-10-16T11:26:47;34.00;52.30
45213;DHT22;35816;44.498;0.166;2022-10-16T11:29:17;34.00;52.20
45213;DHT22;35816;44.498;0.166;2022-10-16T11:31:49;34.20;51.70
45213;DHT22;35816;44.498;0.166;2022-10-16T11:34:17;34.20;51.00
45213;DHT22;35816;44.498;0.166;2022-10-16T11:36:56;33.90;51.30
45213;DHT22;35816;44.498;0.166;2022-10-16T11:39:26;33.90;51.40
45213;DHT22;35816;44.498;0.166;2022-10-16T11:41:54;33.90;51.30
45213;DHT22;35816;44.498;0.166;2022-10-16T11:49:51;34.50;50.70
45213;DHT22;35816;44.498;0.166;2022-10-16T11:54:59;35.10;49.80
45213;DHT22;35816;44.498;0.166;2022-10-16T11:57:27;35.20;49.60
45213;DHT22;35816;44.498;0.166;2022-10-16T12:02:40;35.20;48.90
45213;DHT22;35816;44.498;0.166;2022-10-16T12:07:49;35.90;48.30
45213;DHT22;35816;44.498;0.166;2022-10-16T12:10:23;36.10;48.40
45213;DHT22;35816;44.498;0.166;2022-10-16T12:12:49;36.50;48.60
45213;DHT22;35816;44.498;0.166;2022-10-16T12:15:28;37.00;48.10
45213;DHT22;35816;44.498;0.166;2022-10-16T12:17:54;37.30;47.40
45213;DHT22;35816;44.498;0.166;2022-10-16T12:22:50;37.00;46.00
45213;DHT22;35816;44.498;0.166;2022-10-16T12:25:21;37.00;46.10
45213;DHT22;35816;44.498;0.166;2022-10-16T12:27:58;37.00;46.30
45213;DHT22;35816;44.498;0.166;2022-10-16T12:30:24;37.20;46.30
45213;DHT22;35816;44.498;0.166;2022-10-16T12:32:57;37.20;45.80
45213;DHT22;35816;44.498;0.166;2022-10-16T12:35:25;36.90;45.90
45213;DHT22;35816;44.498;0.166;2022-10-16T12:37:51;36.80;45.90
45213;DHT22;35816;44.498;0.166;2022-10-16T12:40:28;36.70;46.20
45213;DHT22;35816;44.498;0.166;2022-10-16T12:42:54;36.70;46.20
45213;DHT22;35816;44.498;0.166;2022-10-16T12:47:49;36.60;46.10
45213;DHT22;35816;44.498;0.166;2022-10-16T12:50:23;36.40;46.50
45213;DHT22;35816;44.498;0.166;2022-10-16T12:52:49;36.40;46.50
45213;DHT22;35816;44.498;0.166;2022-10-16T12:55:16;36.10;46.50
45213;DHT22;35816;44.498;0.166;2022-10-16T13:00:32;36.40;47.00
45213;DHT22;35816;44.498;0.166;2022-10-16T13:03:23;36.50;47.00
45213;DHT22;35816;44.498;0.166;2022-10-16T13:18:51;38.40;45.70
45213;DHT22;35816;44.498;0.166;2022-10-16T13:29:01;40.20;43.00
45213;DHT22;35816;44.498;0.166;2022-10-16T13:31:27;40.30;41.70
45213;DHT22;35816;44.498;0.166;2022-10-16T13:33:54;39.80;41.50
45213;DHT22;35816;44.498;0.166;2022-10-16T13:39:00;39.50;41.70
45213;DHT22;35816;44.498;0.166;2022-10-16T13:41:25;39.20;41.60
45213;DHT22;35816;44.498;0.166;2022-10-16T13:43:52;38.70;41.50
45213;DHT22;35816;44.498;0.166;2022-10-16T13:46:19;38.30;41.80
45213;DHT22;35816;44.498;0.166;2022-10-16T13:48:55;37.90;42.20
45213;DHT22;35816;44.498;0.166;2022-10-16T13:51:21;37.80;42.70
45213;DHT22;35816;44.498;0.166;2022-10-16T13:53:47;37.80;42.80
45213;DHT22;35816;44.498;0.166;2022-10-16T13:56:15;37.60;42.80
45213;DHT22;35816;44.498;0.166;2022-10-16T13:58:41;37.30;43.00
45213;DHT22;35816;44.498;0.166;2022-10-16T14:01:23;37.20;43.30
45213;DHT22;35816;44.498;0.166;2022-10-16T14:03:49;37.40;43.20
45213;DHT22;35816;44.498;0.166;2022-10-16T14:06:16;38.00;43.50
45213;DHT22;35816;44.498;0.166;2022-10-16T14:08:43;38.80;43.20
45213;DHT22;35816;44.498;0.166;2022-10-16T14:11:09;39.40;42.80
45213;DHT22;35816;44.498;0.166;2022-10-16T14:13:45;39.60;41.90
45213;DHT22;35816;44.498;0.166;2022-10-16T14:16:16;39.60;41.20
45213;DHT22;35816;44.498;0.166;2022-10-16T14:18:44;39.50;40.70
45213;DHT22;35816;44.498;0.166;2022-10-16T14:21:14;39.20;40.80
45213;DHT22;35816;44.498;0.166;2022-10-16T14:23:41;39.10;40.90
45213;DHT22;35816;44.498;0.166;2022-10-16T14:28:36;38.50;41.30
45213;DHT22;35816;44.498;0.166;2022-10-16T14:31:02;38.40;41.40
45213;DHT22;35816;44.498;0.166;2022-10-16T14:33:40;38.10;41.30
45213;DHT22;35816;44.498;0.166;2022-10-16T14:36:11;37.90;41.50
45213;DHT22;35816;44.498;0.166;2022-10-16T14:38:41;37.70;42.00
45213;DHT22;35816;44.498;0.166;2022-10-16T14:41:07;37.70;41.90
45213;DHT22;35816;44.498;0.166;2022-10-16T14:43:37;37.20;42.10
45213;DHT22;35816;44.498;0.166;2022-10-16T14:46:06;36.60;42.40
45213;DHT22;35816;44.498;0.166;2022-10-16T14:48:34;36.00;42.80
45213;DHT22;35816;44.498;0.166;2022-10-16T14:51:00;35.40;43.30
45213;DHT22;35816;44.498;0.166;2022-10-16T14:53:26;34.80;44.00
45213;DHT22;35816;44.498;0.166;2022-10-16T14:55:51;34.20;44.40
45213;DHT22;35816;44.498;0.166;2022-10-16T14:58:18;34.00;45.00
45213;DHT22;35816;44.498;0.166;2022-10-16T15:00:44;33.70;45.50
45213;DHT22;35816;44.498;0.166;2022-10-16T15:03:10;33.40;46.00
45213;DHT22;35816;44.498;0.166;2022-10-16T15:05:35;33.10;46.40
45213;DHT22;35816;44.498;0.166;2022-10-16T15:08:01;32.80;46.90
45213;DHT22;35816;44.498;0.166;2022-10-16T15:10:27;32.50;47.40
45213;DHT22;35816;44.498;0.166;2022-10-16T15:12:53;32.50;47.90
45213;DHT22;35816;44.498;0.166;2022-10-16T15:17:48;32.40;48.10
45213;DHT22;35816;44.498;0.166;2022-10-16T15:20:14;32.60;48.00
45213;DHT22;35816;44.498;0.166;2022-10-16T15:22:39;32.50;47.80
45213;DHT22;35816;44.498;0.166;2022-10-16T15:27:43;31.90;48.10
45213;DHT22;35816;44.498;0.166;2022-10-16T15:30:08;31.50;48.80
45213;DHT22;35816;44.498;0.166;2022-10-16T15:32:34;31.40;49.00
45213;DHT22;35816;44.498;0.166;2022-10-16T15:35:00;31.40;49.10
45213;DHT22;35816;44.498;0.166;2022-10-16T15:37:25;31.40;49.10
45213;DHT22;35816;44.498;0.166;2022-10-16T15:39:51;31.50;49.10
45213;DHT22;35816;44.498;0.166;2022-10-16T15:42:16;31.60;49.20
45213;DHT22;35816;44.498;0.166;2022-10-16T15:44:42;31.90;49.30
45213;DHT22;35816;44.498;0.166;2022-10-16T15:47:07;32.10;48.90
45213;DHT22;35816;44.498;0.166;2022-10-16T15:49:33;31.90;48.80
45213;DHT22;35816;44.498;0.166;2022-10-16T15:51:58;31.60;48.90
45213;DHT22;35816;44.498;0.166;2022-10-16T15:54:24;31.20;49.00
45213;DHT22;35816;44.498;0.166;2022-10-16T15:56:49;30.80;49.30
45213;DHT22;35816;44.498;0.166;2022-10-16T15:59:15;30.50;49.60
45213;DHT22;35816;44.498;0.166;2022-10-16T16:01:41;30.20;49.90
45213;DHT22;35816;44.498;0.166;2022-10-16T16:04:07;29.90;50.30
45213;DHT22;35816;44.498;0.166;2022-10-16T16:06:32;29.60;50.60
45213;DHT22;35816;44.498;0.166;2022-10-16T16:08:58;29.40;51.10
45213;DHT22;35816;44.498;0.166;2022-10-16T16:11:24;29.10;51.40
45213;DHT22;35816;44.498;0.166;2022-10-16T16:13:50;28.90;51.80
45213;DHT22;35816;44.498;0.166;2022-10-16T16:16:16;28.70;52.30
45213;DHT22;35816;44.498;0.166;2022-10-16T16:18:42;28.50;52.70
45213;DHT22;35816;44.498;0.166;2022-10-16T16:21:09;28.30;53.10
45213;DHT22;35816;44.498;0.166;2022-10-16T16:23:34;28.10;53.30
45213;DHT22;35816;44.498;0.166;2022-10-16T16:28:29;27.90;53.90
45213;DHT22;35816;44.498;0.166;2022-10-16T16:30:55;27.70;54.50
45213;DHT22;35816;44.498;0.166;2022-10-16T16:33:21;27.50;55.00
45213;DHT22;35816;44.498;0.166;2022-10-16T16:35:46;27.40;55.30
45213;DHT22;35816;44.498;0.166;2022-10-16T16:38:12;27.30;55.60
45213;DHT22;35816;44.498;0.166;2022-10-16T16:40:37;27.20;55.80
45213;DHT22;35816;44.498;0.166;2022-10-16T16:43:03;27.10;56.10
45213;DHT22;35816;44.498;0.166;2022-10-16T16:45:29;27.00;56.50
45213;DHT22;35816;44.498;0.166;2022-10-16T16:47:54;26.90;56.90
45213;DHT22;35816;44.498;0.166;2022-10-16T16:50:20;26.80;57.20
45213;DHT22;35816;44.498;0.166;2022-10-16T16:52:46;26.70;57.50
45213;DHT22;35816;44.498;0.166;2022-10-16T16:55:11;26.60;57.70
45213;DHT22;35816;44.498;0.166;2022-10-16T16:57:37;26.50;57.80
45213;DHT22;35816;44.498;0.166;2022-10-16T17:00:03;26.30;57.80
45213;DHT22;35816;44.498;0.166;2022-10-16T17:02:28;26.20;58.00
45213;DHT22;35816;44.498;0.166;2022-10-16T17:04:54;26.10;58.40
45213;DHT22;35816;44.498;0.166;2022-10-16T17:07:22;26.00;58.80
45213;DHT22;35816;44.498;0.166;2022-10-16T17:09:47;25.80;59.00
45213;DHT22;35816;44.498;0.166;2022-10-16T17:12:13;25.80;59.40
45213;DHT22;35816;44.498;0.166;2022-10-16T17:14:38;25.70;59.70
45213;DHT22;35816;44.498;0.166;2022-10-16T17:17:04;25.60;60.00
45213;DHT22;35816;44.498;0.166;2022-10-16T17:19:32;25.50;60.20
45213;DHT22;35816;44.498;0.166;2022-10-16T17:21:57;25.40;60.20
45213;DHT22;35816;44.498;0.166;2022-10-16T17:24:23;25.30;60.30
45213;DHT22;35816;44.498;0.166;2022-10-16T17:26:49;25.20;60.40
45213;DHT22;35816;44.498;0.166;2022-10-16T17:29:15;25.20;60.50
45213;DHT22;35816;44.498;0.166;2022-10-16T17:31:42;25.10;60.60
45213;DHT22;35816;44.498;0.166;2022-10-16T17:34:08;25.00;60.50
45213;DHT22;35816;44.498;0.166;2022-10-16T17:36:35;24.90;60.50
45213;DHT22;35816;44.498;0.166;2022-10-16T17:39:04;24.80;60.40
45213;DHT22;35816;44.498;0.166;2022-10-16T17:41:31;24.70;60.50
45213;DHT22;35816;44.498;0.166;2022-10-16T17:43:57;24.70;60.70
45213;DHT22;35816;44.498;0.166;2022-10-16T17:46:23;24.60;60.80
45213;DHT22;35816;44.498;0.166;2022-10-16T17:48:51;24.50;60.90
45213;DHT22;35816;44.498;0.166;2022-10-16T17:51:19;24.40;61.00
45213;DHT22;35816;44.498;0.166;2022-10-16T17:53:49;24.30;61.10
45213;DHT22;35816;44.498;0.166;2022-10-16T17:56:15;24.20;61.20
45213;DHT22;35816;44.498;0.166;2022-10-16T17:58:41;24.20;61.50
45213;DHT22;35816;44.498;0.166;2022-10-16T18:01:13;24.10;61.70
45213;DHT22;35816;44.498;0.166;2022-10-16T18:03:40;24.10;61.80
45213;DHT22;35816;44.498;0.166;2022-10-16T18:06:05;24.00;61.80
45213;DHT22;35816;44.498;0.166;2022-10-16T18:08:31;23.90;62.00
45213;DHT22;35816;44.498;0.166;2022-10-16T18:10:56;23.90;62.20
45213;DHT22;35816;44.498;0.166;2022-10-16T18:13:22;23.80;62.20
45213;DHT22;35816;44.498;0.166;2022-10-16T18:15:57;23.80;62.50
45213;DHT22;35816;44.498;0.166;2022-10-16T18:18:23;23.70;62.70
45213;DHT22;35816;44.498;0.166;2022-10-16T18:20:57;23.70;63.00
45213;DHT22;35816;44.498;0.166;2022-10-16T18:23:23;23.60;63.30
45213;DHT22;35816;44.498;0.166;2022-10-16T18:25:48;23.50;63.70
45213;DHT22;35816;44.498;0.166;2022-10-16T18:28:14;23.50;63.90
45213;DHT22;35816;44.498;0.166;2022-10-16T18:30:40;23.40;64.20
45213;DHT22;35816;44.498;0.166;2022-10-16T18:33:06;23.40;64.50
45213;DHT22;35816;44.498;0.166;2022-10-16T18:35:34;23.30;64.70
45213;DHT22;35816;44.498;0.166;2022-10-16T18:37:59;23.30;65.10
45213;DHT22;35816;44.498;0.166;2022-10-16T18:40:25;23.30;65.30
45213;DHT22;35816;44.498;0.166;2022-10-16T18:42:50;23.20;65.90
45213;DHT22;35816;44.498;0.166;2022-10-16T18:45:17;23.20;66.30
45213;DHT22;35816;44.498;0.166;2022-10-16T18:47:43;23.10;66.60
45213;DHT22;35816;44.498;0.166;2022-10-16T18:50:09;23.10;67.10
45213;DHT22;35816;44.498;0.166;2022-10-16T18:52:34;23.00;67.30
45213;DHT22;35816;44.498;0.166;2022-10-16T18:55:00;23.00;67.50
45213;DHT22;35816;44.498;0.166;2022-10-16T18:57:29;22.90;67.90
45213;DHT22;35816;44.498;0.166;2022-10-16T18:59:55;22.90;68.00
45213;DHT22;35816;44.498;0.166;2022-10-16T19:02:20;22.80;68.20
45213;DHT22;35816;44.498;0.166;2022-10-16T19:04:46;22.80;68.30
45213;DHT22;35816;44.498;0.166;2022-10-16T19:07:12;22.70;68.30
45213;DHT22;35816;44.498;0.166;2022-10-16T19:09:40;22.70;68.50
45213;DHT22;35816;44.498;0.166;2022-10-16T19:12:05;22.60;68.60
45213;DHT22;35816;44.498;0.166;2022-10-16T19:14:31;22.60;69.10
45213;DHT22;35816;44.498;0.166;2022-10-16T19:16:57;22.50;69.40
45213;DHT22;35816;44.498;0.166;2022-10-16T19:19:23;22.50;70.10
45213;DHT22;35816;44.498;0.166;2022-10-16T19:21:50;22.50;71.20
45213;DHT22;35816;44.498;0.166;2022-10-16T19:24:20;22.50;71.70
45213;DHT22;35816;44.498;0.166;2022-10-16T19:26:46;22.50;72.40
45213;DHT22;35816;44.498;0.166;2022-10-16T19:29:11;22.50;73.10
45213;DHT22;35816;44.498;0.166;2022-10-16T19:31:37;22.50;74.00
45213;DHT22;35816;44.498;0.166;2022-10-16T19:34:03;22.50;75.30
45213;DHT22;35816;44.498;0.166;2022-10-16T19:36:31;22.50;76.50
45213;DHT22;35816;44.498;0.166;2022-10-16T19:38:58;22.50;77.70
45213;DHT22;35816;44.498;0.166;2022-10-16T19:41:24;22.50;78.80
45213;DHT22;35816;44.498;0.166;2022-10-16T19:43:50;22.50;79.70
45213;DHT22;35816;44.498;0.166;2022-10-16T19:46:17;22.50;80.60
45213;DHT22;35816;44.498;0.166;2022-10-16T19:48:43;22.50;81.50
45213;DHT22;35816;44.498;0.166;2022-10-16T19:51:13;22.40;82.20
45213;DHT22;35816;44.498;0.166;2022-10-16T19:53:39;22.40;83.50
45213;DHT22;35816;44.498;0.166;2022-10-16T19:56:12;22.40;83.70
45213;DHT22;35816;44.498;0.166;2022-10-16T19:58:38;22.40;84.10
45213;DHT22;35816;44.498;0.166;2022-10-16T20:01:04;22.30;84.50
45213;DHT22;35816;44.498;0.166;2022-10-16T20:03:30;22.30;84.90
45213;DHT22;35816;44.498;0.166;2022-10-16T20:05:55;22.30;85.50
45213;DHT22;35816;44.498;0.166;2022-10-16T20:08:21;22.20;86.30
45213;DHT22;35816;44.498;0.166;2022-10-16T20:10:52;22.20;85.90
45213;DHT22;35816;44.498;0.166;2022-10-16T20:13:18;22.20;86.50
45213;DHT22;35816;44.498;0.166;2022-10-16T20:15:44;22.10;86.90
45213;DHT22;35816;44.498;0.166;2022-10-16T20:18:10;22.10;87.20
45213;DHT22;35816;44.498;0.166;2022-10-16T20:20:36;22.10;87.50
45213;DHT22;35816;44.498;0.166;2022-10-16T20:23:02;22.00;87.80
45213;DHT22;35816;44.498;0.166;2022-10-16T20:25:27;22.00;88.20
45213;DHT22;35816;44.498;0.166;2022-10-16T20:27:53;22.00;88.80
45213;DHT22;35816;44.498;0.166;2022-10-16T20:30:18;22.00;89.50
45213;DHT22;35816;44.498;0.166;2022-10-16T20:32:44;21.90;90.10
45213;DHT22;35816;44.498;0.166;2022-10-16T20:35:10;21.90;90.50
45213;DHT22;35816;44.498;0.166;2022-10-16T20:37:36;21.90;90.70
45213;DHT22;35816;44.498;0.166;2022-10-16T20:40:02;21.90;91.50
45213;DHT22;35816;44.498;0.166;2022-10-16T20:42:29;21.90;91.70
45213;DHT22;35816;44.498;0.166;2022-10-16T20:44:54;21.90;91.90
45213;DHT22;35816;44.498;0.166;2022-10-16T20:47:20;21.90;92.20
45213;DHT22;35816;44.498;0.166;2022-10-16T20:49:46;22.00;93.00
45213;DHT22;35816;44.498;0.166;2022-10-16T20:52:11;22.00;93.50
45213;DHT22;35816;44.498;0.166;2022-10-16T20:54:37;22.10;94.00
45213;DHT22;35816;44.498;0.166;2022-10-16T20:57:02;22.10;94.20
45213;DHT22;35816;44.498;0.166;2022-10-16T20:59:28;22.10;94.40
45213;DHT22;35816;44.498;0.166;2022-10-16T21:01:53;22.20;94.40
45213;DHT22;35816;44.498;0.166;2022-10-16T21:04:19;22.20;94.80
45213;DHT22;35816;44.498;0.166;2022-10-16T21:06:45;22.10;95.00
45213;DHT22;35816;44.498;0.166;2022-10-16T21:09:10;22.20;95.20
45213;DHT22;35816;44.498;0.166;2022-10-16T21:11:36;22.10;95.30
45213;DHT22;35816;44.498;0.166;2022-10-16T21:14:02;22.10;95.60
45213;DHT22;35816;44.498;0.166;2022-10-16T21:16:28;22.10;96.10
45213;DHT22;35816;44.498;0.166;2022-10-16T21:18:54;22.10;96.20
45213;DHT22;35816;44.498;0.166;2022-10-16T21:21:21;22.10;96.30
45213;DHT22;35816;44.498;0.166;2022-10-16T21:23:47;22.00;96.30
45213;DHT22;35816;44.498;0.166;2022-10-16T21:26:13;22.00;96.80
45213;DHT22;35816;44.498;0.166;2022-10-16T21:28:40;22.00;96.90
45213;DHT22;35816;44.498;0.166;2022-10-16T21:31:10;21.90;97.00
45213;DHT22;35816;44.498;0.166;2022-10-16T21:33:36;21.90;97.10
45213;DHT22;35816;44.498;0.166;2022-10-16T21:36:10;21.90;97.40
45213;DHT22;35816;44.498;0.166;2022-10-16T21:38:36;21.90;97.40
45213;DHT22;35816;44.498;0.166;2022-10-16T21:41:10;21.80;97.40
45213;DHT22;35816;44.498;0.166;2022-10-16T21:46:46;21.70;97.80
45213;DHT22;35816;44.498;0.166;2022-10-16T21:49:14;21.70;98.40
45213;DHT22;35816;44.498;0.166;2022-10-16T21:51:57;21.70;98.30
45213;DHT22;35816;44.498;0.166;2022-10-16T21:54:46;21.60;98.40
45213;DHT22;35816;44.498;0.166;2022-10-16T22:00:19;21.60;98.90
45213;DHT22;35816;44.498;0.166;2022-10-16T22:02:49;21.60;99.10
45213;DHT22;35816;44.498;0.166;2022-10-16T22:05:28;21.50;99.20
45213;DHT22;35816;44.498;0.166;2022-10-16T22:07:59;21.50;99.50
45213;DHT22;35816;44.498;0.166;2022-10-16T22:10:34;21.50;99.50
45213;DHT22;35816;44.498;0.166;2022-10-16T22:13:02;21.50;99.70
45213;DHT22;35816;44.498;0.166;2022-10-16T22:15:28;21.50;99.90
45213;DHT22;35816;44.498;0.166;2022-10-16T22:17:56;21.50;99.90
45213;DHT22;35816;44.498;0.166;2022-10-16T22:20:48;21.40;99.90
45213;DHT22;35816;44.498;0.166;2022-10-16T22:23:33;21.40;99.90
45213;DHT22;35816;44.498;0.166;2022-10-16T22:26:38;21.40;99.90
45213;DHT22;35816;44.498;0.166;2022-10-16T22:35:51;21.40;99.90
45213;DHT22;35816;44.498;0.166;2022-10-16T22:38:16;21.40;99.90
45213;DHT22;35816;44.498;0.166;2022-10-16T22:41:26;21.40;99.90
45213;DHT22;35816;44.498;0.166;2022-10-16T22:43:52;21.40;99.90
45213;DHT22;35816;44.498;0.166;2022-10-16T22:47:03;21.30;99.90
45213;DHT22;35816;44.498;0.166;2022-10-16T22:52:52;21.30;99.90
45213;DHT22;35816;44.498;0.166;2022-10-16T23:02:01;21.30;99.90
45213;DHT22;35816;44.498;0.166;2022-10-16T23:05:06;21.30;99.90
45213;DHT22;35816;44.498;0.166;2022-10-16T23:08:02;21.30;99.90
45213;DHT22;35816;44.498;0.166;2022-10-16T23:11:35;21.30;99.90
45213;DHT22;35816;44.498;0.166;2022-10-16T23:14:40;21.30;99.90
45213;DHT22;35816;44.498;0.166;2022-10-16T23:17:29;21.20;99.90
45213;DHT22;35816;44.498;0.166;2022-10-16T23:29:27;21.20;99.90
45213;DHT22;35816;44.498;0.166;2022-10-16T23:32:51;21.20;99.90
